createdAt,value
2022-09-18T00:01:31.410Z,9.00
2022-09-18T00:04:00.870Z,9.10
2022-09-18T00:06:30.653Z,9.20
2022-09-18T00:09:01.263Z,9.30
2022-09-18T00:11:33.347Z,9.30
2022-09-18T00:14:00.164Z,9.40
2022-09-18T00:16:27.331Z,9.30
2022-09-18T00:18:54.252Z,9.30
2022-09-18T00:21:24.643Z,9.20
2022-09-18T00:23:54.391Z,9.10
2022-09-18T00:26:21.990Z,9.10
2022-09-18T00:28:48.823Z,9.10
2022-09-18T00:31:21.265Z,9.00
2022-09-18T00:33:48.522Z,9.00
2022-09-18T00:36:18.254Z,9.00
2022-09-18T00:38:46.454Z,9.00
2022-09-18T00:41:17.980Z,8.90
2022-09-18T00:43:45.436Z,8.90
2022-09-18T00:46:39.447Z,8.90
2022-09-18T00:49:25.766Z,9.00
2022-09-18T00:51:55.830Z,9.00
2022-09-18T00:54:26.970Z,9.10
2022-09-18T00:56:59.089Z,9.20
2022-09-18T00:59:29.682Z,9.30
2022-09-18T01:01:57.844Z,9.40
2022-09-18T01:04:25.972Z,9.30
2022-09-18T01:07:00.117Z,9.30
2022-09-18T01:09:38.024Z,9.20
2022-09-18T01:12:28.174Z,9.20
2022-09-18T01:15:13.253Z,9.20
2022-09-18T01:17:58.459Z,9.20
2022-09-18T01:20:49.413Z,9.10
2022-09-18T01:23:42.756Z,9.10
2022-09-18T01:26:18.492Z,9.20
2022-09-18T01:28:49.070Z,9.10
2022-09-18T01:31:29.892Z,9.10
2022-09-18T01:34:18.049Z,9.20
2022-09-18T01:36:51.415Z,9.20
2022-09-18T01:39:53.394Z,9.20
2022-09-18T01:42:24.080Z,9.10
2022-09-18T01:44:54.659Z,9.00
2022-09-18T01:47:25.351Z,9.00
2022-09-18T01:49:53.815Z,9.10
2022-09-18T01:52:26.761Z,9.00
2022-09-18T01:54:55.966Z,9.00
2022-09-18T01:57:32.493Z,9.00
2022-09-18T02:00:09.486Z,9.00
2022-09-18T02:03:05.518Z,9.00
2022-09-18T02:06:07.826Z,9.10
2022-09-18T02:08:45.797Z,9.00
2022-09-18T02:11:15.703Z,9.00
2022-09-18T02:13:44.671Z,9.00
2022-09-18T02:16:41.680Z,9.00
2022-09-18T02:19:31.507Z,9.10
2022-09-18T02:22:03.332Z,9.00
2022-09-18T02:24:35.075Z,9.00
2022-09-18T02:27:04.504Z,9.00
2022-09-18T02:29:32.488Z,9.00
2022-09-18T02:32:00.044Z,9.00
2022-09-18T02:34:28.427Z,9.10
2022-09-18T02:37:23.118Z,9.10
2022-09-18T02:40:10.185Z,9.10
2022-09-18T02:43:23.924Z,9.10
2022-09-18T02:46:15.565Z,9.00
2022-09-18T02:48:48.153Z,9.00
2022-09-18T02:51:34.893Z,9.00
2022-09-18T02:54:28.236Z,9.00
2022-09-18T02:57:10.850Z,8.90
2022-09-18T02:59:53.634Z,8.90
2022-09-18T03:02:23.035Z,8.90
2022-09-18T03:04:50.476Z,9.00
2022-09-18T03:07:25.614Z,8.90
2022-09-18T03:09:53.303Z,8.90
2022-09-18T03:12:20.093Z,8.90
2022-09-18T03:14:49.920Z,8.90
2022-09-18T03:17:17.343Z,8.90
2022-09-18T03:19:45.901Z,9.00
2022-09-18T03:22:14.167Z,9.00
2022-09-18T03:24:42.283Z,9.00
2022-09-18T03:27:10.524Z,9.10
2022-09-18T03:29:37.444Z,9.20
2022-09-18T03:32:04.580Z,9.20
2022-09-18T03:34:39.798Z,9.10
2022-09-18T03:37:06.711Z,9.20
2022-09-18T03:39:33.807Z,9.30
2022-09-18T03:42:00.776Z,9.30
2022-09-18T03:44:27.581Z,9.30
2022-09-18T03:46:57.314Z,9.40
2022-09-18T03:49:25.496Z,9.50
2022-09-18T03:51:54.494Z,9.50
2022-09-18T03:54:21.938Z,9.50
2022-09-18T03:56:59.884Z,9.40
2022-09-18T03:59:26.656Z,9.40
2022-09-18T04:02:05.412Z,9.50
2022-09-18T04:04:50.502Z,9.50
2022-09-18T04:07:18.237Z,9.50
2022-09-18T04:10:03.994Z,9.50
2022-09-18T04:12:30.779Z,9.50
2022-09-18T04:15:19.157Z,9.50
2022-09-18T04:17:47.649Z,9.60
2022-09-18T04:20:14.563Z,9.60
2022-09-18T04:22:42.463Z,9.60
2022-09-18T04:25:09.963Z,9.60
2022-09-18T04:27:37.109Z,9.60
2022-09-18T04:30:04.320Z,9.60
2022-09-18T04:32:32.925Z,9.60
2022-09-18T04:34:59.876Z,9.60
2022-09-18T04:37:27.515Z,9.70
2022-09-18T04:39:54.434Z,9.60
2022-09-18T04:42:21.642Z,9.60
2022-09-18T04:44:49.300Z,9.60
2022-09-18T04:47:16.420Z,9.60
2022-09-18T04:49:43.542Z,9.60
2022-09-18T04:52:10.681Z,9.50
2022-09-18T04:54:38.076Z,9.50
2022-09-18T04:57:05.662Z,9.50
2022-09-18T04:59:32.577Z,9.40
2022-09-18T05:01:59.960Z,9.50
2022-09-18T05:04:26.793Z,9.50
2022-09-18T05:07:05.024Z,9.40
2022-09-18T05:09:34.470Z,9.50
2022-09-18T05:12:01.705Z,9.40
2022-09-18T05:14:28.608Z,9.40
2022-09-18T05:16:59.998Z,9.50
2022-09-18T05:19:36.981Z,9.50
2022-09-18T05:22:09.646Z,9.50
2022-09-18T05:24:40.402Z,9.50
2022-09-18T05:27:08.633Z,9.60
2022-09-18T05:29:35.800Z,9.70
2022-09-18T05:32:10.706Z,9.80
2022-09-18T05:34:38.045Z,10.00
2022-09-18T05:37:06.730Z,10.10
2022-09-18T05:39:33.506Z,10.10
2022-09-18T05:42:02.179Z,10.10
2022-09-18T05:44:29.155Z,10.20
2022-09-18T05:46:57.273Z,10.20
2022-09-18T05:49:24.088Z,10.20
2022-09-18T05:51:50.957Z,10.20
2022-09-18T05:54:20.525Z,10.20
2022-09-18T05:56:48.929Z,10.20
2022-09-18T05:59:16.304Z,10.20
2022-09-18T06:01:47.459Z,10.20
2022-09-18T06:04:25.838Z,10.20
2022-09-18T06:07:01.585Z,10.20
2022-09-18T06:09:28.929Z,10.30
2022-09-18T06:11:55.757Z,10.30
2022-09-18T06:14:22.851Z,10.30
2022-09-18T06:16:50.059Z,10.30
2022-09-18T06:19:16.968Z,10.30
2022-09-18T06:21:46.857Z,10.40
2022-09-18T06:24:16.951Z,10.40
2022-09-18T06:26:50.105Z,10.50
2022-09-18T06:29:16.844Z,10.50
2022-09-18T06:32:16.310Z,10.50
2022-09-18T06:34:43.244Z,10.50
2022-09-18T06:37:14.337Z,10.60
2022-09-18T06:39:41.943Z,10.60
2022-09-18T06:42:12.982Z,10.60
2022-09-18T06:45:15.328Z,10.70
2022-09-18T06:47:42.211Z,10.70
2022-09-18T06:50:09.437Z,10.80
2022-09-18T06:52:37.137Z,10.80
2022-09-18T06:55:05.686Z,10.80
2022-09-18T06:57:33.457Z,10.80
2022-09-18T07:00:00.379Z,10.80
2022-09-18T07:02:30.588Z,10.90
2022-09-18T07:05:11.210Z,10.90
2022-09-18T07:07:40.184Z,11.00
2022-09-18T07:10:09.225Z,11.10
2022-09-18T07:12:48.415Z,11.10
2022-09-18T07:15:18.297Z,11.10
2022-09-18T07:17:45.652Z,11.20
2022-09-18T07:20:15.588Z,11.10
2022-09-18T07:22:47.267Z,11.20
2022-09-18T07:25:15.063Z,11.20
2022-09-18T07:27:43.400Z,11.20
2022-09-18T07:30:12.116Z,11.20
2022-09-18T07:32:39.001Z,11.20
2022-09-18T07:35:13.237Z,11.40
2022-09-18T07:37:40.231Z,11.40
2022-09-18T07:40:15.476Z,11.50
2022-09-18T07:43:11.234Z,11.50
2022-09-18T07:45:45.364Z,11.60
2022-09-18T07:48:12.628Z,11.60
2022-09-18T07:50:46.514Z,11.70
2022-09-18T07:53:14.501Z,11.60
2022-09-18T07:55:47.187Z,11.70
2022-09-18T07:58:14.440Z,11.80
2022-09-18T08:01:03.950Z,12.00
2022-09-18T08:03:34.261Z,12.00
2022-09-18T08:06:22.925Z,11.90
2022-09-18T08:09:03.697Z,11.80
2022-09-18T08:11:52.259Z,11.70
2022-09-18T08:14:28.982Z,11.70
2022-09-18T08:17:14.406Z,11.60
2022-09-18T08:20:09.591Z,11.50
2022-09-18T08:22:43.123Z,11.20
2022-09-18T08:25:11.276Z,11.10
2022-09-18T08:27:42.150Z,11.00
2022-09-18T08:30:11.921Z,11.00
2022-09-18T08:32:40.199Z,11.00
2022-09-18T08:35:09.755Z,10.90
2022-09-18T08:37:37.004Z,10.90
2022-09-18T08:40:39.855Z,10.80
2022-09-18T08:43:19.961Z,10.80
2022-09-18T08:46:04.666Z,11.00
2022-09-18T08:48:40.216Z,10.90
2022-09-18T08:51:14.354Z,10.90
2022-09-18T08:53:47.438Z,10.90
2022-09-18T08:56:36.943Z,10.90
2022-09-18T08:59:50.194Z,10.90
2022-09-18T09:02:45.364Z,11.00
2022-09-18T09:05:16.002Z,11.00
2022-09-18T09:08:06.848Z,11.00
2022-09-18T09:10:45.139Z,11.00
2022-09-18T09:13:43.372Z,10.90
2022-09-18T09:16:18.568Z,10.90
2022-09-18T09:18:59.895Z,10.90
2022-09-18T09:21:41.584Z,10.90
2022-09-18T09:24:38.189Z,10.90
2022-09-18T09:27:18.106Z,10.90
2022-09-18T09:30:22.742Z,10.90
2022-09-18T09:33:20.755Z,10.90
2022-09-18T09:36:14.044Z,10.80
2022-09-18T09:39:26.898Z,10.80
2022-09-18T09:42:00.431Z,10.80
2022-09-18T09:44:41.606Z,10.70
2022-09-18T09:47:18.962Z,10.70
2022-09-18T09:49:58.403Z,10.70
2022-09-18T09:52:27.362Z,10.70
2022-09-18T09:55:29.816Z,10.70
2022-09-18T09:58:21.321Z,10.80
2022-09-18T10:01:01.836Z,10.80
2022-09-18T10:04:15.347Z,10.80
2022-09-18T10:06:48.995Z,10.80
2022-09-18T10:09:47.046Z,10.80
2022-09-18T10:12:32.142Z,10.80
2022-09-18T10:15:43.033Z,10.90
2022-09-18T10:18:26.198Z,10.90
2022-09-18T10:21:05.669Z,10.90
2022-09-18T10:23:39.437Z,10.90
2022-09-18T10:26:14.261Z,11.00
2022-09-18T10:28:41.001Z,10.90
2022-09-18T10:31:13.105Z,10.90
2022-09-18T10:33:52.985Z,10.90
2022-09-18T10:36:39.150Z,11.10
2022-09-18T10:39:31.690Z,10.80
2022-09-18T10:42:07.344Z,10.80
2022-09-18T10:44:39.873Z,10.90
2022-09-18T10:47:18.333Z,10.80
2022-09-18T10:49:55.903Z,10.90
2022-09-18T10:52:31.903Z,10.80
2022-09-18T10:55:07.199Z,10.80
2022-09-18T10:57:35.679Z,10.70
2022-09-18T11:00:27.137Z,10.60
2022-09-18T11:02:59.191Z,10.50
2022-09-18T11:05:34.716Z,10.40
2022-09-18T11:08:17.821Z,10.20
2022-09-18T11:10:49.700Z,9.90
2022-09-18T11:13:26.969Z,9.70
2022-09-18T11:15:58.312Z,9.60
2022-09-18T11:18:27.033Z,9.50
2022-09-18T11:20:57.070Z,9.70
2022-09-18T11:23:32.995Z,9.70
2022-09-18T11:26:26.911Z,9.60
2022-09-18T11:29:18.062Z,9.10
2022-09-18T11:31:56.975Z,8.80
2022-09-18T11:34:56.253Z,8.70
2022-09-18T11:37:38.195Z,8.60
2022-09-18T11:40:30.111Z,8.60
2022-09-18T11:42:58.714Z,8.80
2022-09-18T11:45:28.404Z,9.00
2022-09-18T11:48:19.697Z,9.20
2022-09-18T11:50:47.872Z,9.40
2022-09-18T11:53:27.971Z,9.60
2022-09-18T11:56:14.421Z,9.80
2022-09-18T11:58:53.642Z,10.00
2022-09-18T12:01:45.602Z,10.10
2022-09-18T12:04:36.384Z,10.20
2022-09-18T12:10:06.767Z,10.50
2022-09-18T12:12:43.602Z,10.40
2022-09-18T12:15:23.408Z,10.40
2022-09-18T12:17:56.423Z,10.40
2022-09-18T12:20:48.704Z,10.40
2022-09-18T12:23:24.645Z,10.40
2022-09-18T12:26:02.769Z,10.40
2022-09-18T12:29:04.851Z,10.50
2022-09-18T12:31:52.562Z,10.40
2022-09-18T12:34:40.247Z,10.40
2022-09-18T12:37:28.677Z,10.50
2022-09-18T12:39:59.012Z,10.50
2022-09-18T12:42:40.992Z,10.70
2022-09-18T12:45:38.820Z,10.60
2022-09-18T12:48:36.116Z,10.70
2022-09-18T12:51:27.183Z,10.70
2022-09-18T12:54:36.259Z,10.80
2022-09-18T12:57:11.753Z,10.80
2022-09-18T12:59:39.134Z,10.90
2022-09-18T13:02:46.223Z,10.90
2022-09-18T13:05:26.051Z,10.90
2022-09-18T13:08:05.656Z,11.00
2022-09-18T13:10:38.596Z,11.10
2022-09-18T13:13:43.704Z,11.10
2022-09-18T13:16:59.122Z,11.20
2022-09-18T13:19:29.501Z,11.30
2022-09-18T13:21:58.785Z,11.30
2022-09-18T13:24:32.943Z,11.30
2022-09-18T13:27:03.713Z,11.40
2022-09-18T13:29:51.783Z,11.40
2022-09-18T13:32:22.143Z,11.40
2022-09-18T13:34:56.377Z,11.40
2022-09-18T13:37:26.019Z,11.50
2022-09-18T13:40:09.330Z,11.50
2022-09-18T13:42:42.640Z,11.50
2022-09-18T13:45:18.429Z,11.70
2022-09-18T13:48:04.391Z,11.90
2022-09-18T13:50:33.914Z,11.90
2022-09-18T13:53:04.078Z,12.00
2022-09-18T13:55:48.595Z,12.20
2022-09-18T13:58:37.055Z,12.40
2022-09-18T14:01:09.657Z,12.70
2022-09-18T14:03:40.981Z,13.00
2022-09-18T14:06:36.664Z,13.20
2022-09-18T14:09:42.256Z,13.10
2022-09-18T14:12:14.424Z,13.10
2022-09-18T14:14:42.652Z,12.70
2022-09-18T14:17:13.289Z,12.80
2022-09-18T14:19:40.748Z,12.40
2022-09-18T14:22:41.182Z,12.30
2022-09-18T14:25:12.236Z,12.30
2022-09-18T14:28:03.429Z,12.20
2022-09-18T14:30:31.602Z,12.00
2022-09-18T14:33:19.356Z,12.10
2022-09-18T14:36:04.811Z,12.00
2022-09-18T14:38:37.239Z,11.90
2022-09-18T14:41:18.860Z,12.00
2022-09-18T14:43:52.104Z,12.00
2022-09-18T14:46:24.278Z,12.10
2022-09-18T14:48:51.723Z,12.10
2022-09-18T14:51:22.830Z,12.10
2022-09-18T14:53:52.792Z,12.10
2022-09-18T14:56:28.671Z,12.00
2022-09-18T14:58:58.019Z,12.10
2022-09-18T15:01:29.277Z,12.10
2022-09-18T15:03:58.291Z,12.00
2022-09-18T15:06:35.494Z,12.10
2022-09-18T15:09:03.260Z,12.10
2022-09-18T15:11:41.877Z,12.10
2022-09-18T15:14:21.030Z,12.10
2022-09-18T15:16:59.392Z,12.00
2022-09-18T15:19:27.572Z,11.90
2022-09-18T15:21:54.786Z,12.00
2022-09-18T15:24:21.725Z,11.90
2022-09-18T15:26:56.360Z,11.90
2022-09-18T15:29:23.239Z,11.80
2022-09-18T15:31:51.070Z,11.80
2022-09-18T15:34:26.771Z,11.70
2022-09-18T15:37:02.428Z,11.70
2022-09-18T15:39:36.040Z,11.70
2022-09-18T15:42:16.658Z,11.70
2022-09-18T15:44:55.019Z,11.70
2022-09-18T15:47:38.342Z,11.70
2022-09-18T15:50:32.680Z,11.70
2022-09-18T15:53:01.458Z,11.70
2022-09-18T15:56:01.710Z,11.70
2022-09-18T15:58:41.106Z,11.70
2022-09-18T16:01:16.494Z,11.60
2022-09-18T16:03:43.743Z,11.70
2022-09-18T16:06:24.583Z,11.70
2022-09-18T16:08:54.107Z,11.60
2022-09-18T16:11:41.594Z,11.60
2022-09-18T16:14:44.179Z,11.60
2022-09-18T16:17:29.301Z,11.50
2022-09-18T16:19:57.412Z,11.40
2022-09-18T16:22:27.386Z,11.40
2022-09-18T16:24:57.810Z,11.40
2022-09-18T16:27:26.193Z,11.20
2022-09-18T16:29:53.011Z,10.70
2022-09-18T16:32:21.765Z,10.30
2022-09-18T16:34:48.747Z,9.90
2022-09-18T16:37:17.483Z,9.70
2022-09-18T16:39:45.432Z,9.50
2022-09-18T16:42:18.577Z,9.40
2022-09-18T16:44:45.873Z,9.50
2022-09-18T16:47:15.723Z,9.50
2022-09-18T16:49:45.741Z,9.50
2022-09-18T16:52:13.890Z,9.50
2022-09-18T16:54:40.978Z,9.60
2022-09-18T16:57:16.135Z,9.50
2022-09-18T16:59:44.774Z,9.60
2022-09-18T17:02:17.908Z,9.70
2022-09-18T17:04:44.741Z,9.90
2022-09-18T17:07:11.604Z,10.00
2022-09-18T17:09:38.408Z,10.20
2022-09-18T17:12:05.518Z,10.30
2022-09-18T17:14:32.479Z,10.30
2022-09-18T17:16:59.594Z,10.30
2022-09-18T17:19:26.722Z,10.40
2022-09-18T17:21:53.654Z,10.40
2022-09-18T17:24:26.106Z,10.40
2022-09-18T17:26:54.039Z,10.40
2022-09-18T17:29:21.265Z,10.40
2022-09-18T17:31:48.150Z,10.50
2022-09-18T17:34:16.593Z,10.50
2022-09-18T17:36:43.410Z,10.40
2022-09-18T17:39:10.378Z,10.40
2022-09-18T17:41:37.291Z,10.40
2022-09-18T17:44:04.967Z,10.30
2022-09-18T17:46:31.796Z,10.30
2022-09-18T17:49:00.070Z,10.20
2022-09-18T17:51:28.927Z,10.20
2022-09-18T17:54:04.552Z,10.10
2022-09-18T17:56:33.342Z,10.20
2022-09-18T17:59:06.742Z,10.10
2022-09-18T18:01:38.499Z,10.20
2022-09-18T18:04:06.134Z,10.10
2022-09-18T18:06:33.943Z,10.10
2022-09-18T18:09:01.275Z,10.10
2022-09-18T18:11:29.697Z,10.00
2022-09-18T18:13:56.517Z,10.00
2022-09-18T18:16:30.669Z,10.00
2022-09-18T18:19:00.320Z,10.00
2022-09-18T18:21:28.290Z,10.00
2022-09-18T18:23:57.365Z,9.90
2022-09-18T18:26:24.462Z,10.10
2022-09-18T18:28:51.407Z,9.90
2022-09-18T18:31:18.257Z,10.10
2022-09-18T18:33:45.168Z,10.10
2022-09-18T18:36:15.234Z,10.00
2022-09-18T18:38:45.452Z,10.00
2022-09-18T18:41:13.453Z,10.10
2022-09-18T18:43:41.315Z,10.00
2022-09-18T18:46:12.236Z,10.00
2022-09-18T18:48:43.328Z,10.00
2022-09-18T18:51:16.336Z,10.10
2022-09-18T18:53:43.707Z,10.00
2022-09-18T18:56:16.106Z,10.00
2022-09-18T18:58:44.142Z,10.00
2022-09-18T19:01:17.797Z,10.00
2022-09-18T19:03:56.627Z,10.00
2022-09-18T19:06:24.804Z,10.00
2022-09-18T19:09:03.271Z,10.10
2022-09-18T19:11:34.631Z,10.10
2022-09-18T19:14:01.450Z,10.10
2022-09-18T19:16:29.479Z,10.00
2022-09-18T19:18:59.691Z,9.80
2022-09-18T19:21:28.388Z,9.80
2022-09-18T19:23:59.506Z,9.80
2022-09-18T19:26:28.535Z,9.80
2022-09-18T19:28:59.141Z,9.80
2022-09-18T19:31:28.148Z,9.80
2022-09-18T19:33:57.646Z,9.80
2022-09-18T19:36:26.975Z,9.70
2022-09-18T19:38:56.017Z,9.60
2022-09-18T19:41:29.895Z,9.70
2022-09-18T19:43:57.471Z,9.60
2022-09-18T19:46:29.117Z,9.70
2022-09-18T19:48:56.059Z,9.70
2022-09-18T19:51:23.868Z,9.80
2022-09-18T19:53:51.528Z,9.80
2022-09-18T19:56:39.280Z,9.80
2022-09-18T19:59:05.595Z,9.80
2022-09-18T20:01:32.404Z,9.70
2022-09-18T20:03:59.282Z,9.70
2022-09-18T20:06:26.067Z,9.60
2022-09-18T20:08:52.855Z,9.60
2022-09-18T20:11:19.673Z,9.60
2022-09-18T20:13:50.665Z,9.60
2022-09-18T20:16:17.968Z,9.60
2022-09-18T20:18:45.113Z,9.60
2022-09-18T20:21:14.148Z,9.60
2022-09-18T20:23:41.239Z,9.70
2022-09-18T20:26:09.276Z,9.70
2022-09-18T20:28:37.032Z,9.70
2022-09-18T20:31:06.276Z,9.70
2022-09-18T20:33:33.996Z,9.60
2022-09-18T20:36:01.707Z,9.50
2022-09-18T20:38:36.478Z,9.40
2022-09-18T20:41:08.263Z,9.40
2022-09-18T20:43:38.626Z,9.30
2022-09-18T20:46:07.703Z,9.30
2022-09-18T20:48:38.481Z,9.30
2022-09-18T20:51:10.957Z,9.20
2022-09-18T20:53:39.833Z,9.20
2022-09-18T20:56:07.877Z,9.20
2022-09-18T20:58:35.695Z,9.20
2022-09-18T21:01:11.311Z,9.30
2022-09-18T21:03:40.171Z,9.20
2022-09-18T21:06:22.375Z,9.30
2022-09-18T21:08:53.507Z,9.30
2022-09-18T21:11:28.765Z,9.30
2022-09-18T21:13:58.094Z,9.30
2022-09-18T21:16:26.562Z,9.30
2022-09-18T21:18:56.761Z,9.30
2022-09-18T21:21:25.315Z,9.40
2022-09-18T21:24:01.167Z,9.40
2022-09-18T21:26:35.629Z,9.30
2022-09-18T21:29:10.991Z,9.40
2022-09-18T21:31:41.169Z,9.30
2022-09-18T21:34:30.259Z,9.30
2022-09-18T21:37:02.852Z,9.40
2022-09-18T21:39:31.331Z,9.40
2022-09-18T21:41:59.797Z,9.50
2022-09-18T21:44:29.587Z,9.50
2022-09-18T21:47:05.296Z,9.50
2022-09-18T21:49:32.865Z,9.50
2022-09-18T21:52:05.362Z,9.50
2022-09-18T21:54:32.707Z,9.60
2022-09-18T21:57:00.368Z,9.60
2022-09-18T21:59:30.313Z,9.60
2022-09-18T22:01:58.215Z,9.60
2022-09-18T22:04:27.807Z,9.60
2022-09-18T22:06:56.865Z,9.70
2022-09-18T22:09:26.774Z,9.70
2022-09-18T22:11:54.783Z,9.70
2022-09-18T22:14:24.185Z,9.70
2022-09-18T22:16:53.207Z,9.80
2022-09-18T22:19:20.340Z,9.70
2022-09-18T22:21:49.503Z,9.70
2022-09-18T22:24:19.154Z,9.70
2022-09-18T22:26:49.997Z,9.70
2022-09-18T22:29:22.662Z,9.60
2022-09-18T22:31:50.467Z,9.70
2022-09-18T22:34:20.574Z,9.60
2022-09-18T22:36:48.106Z,9.60
2022-09-18T22:39:17.181Z,9.60
2022-09-18T22:41:44.562Z,9.60
2022-09-18T22:44:11.920Z,9.70
2022-09-18T22:46:41.164Z,9.70
2022-09-18T22:49:08.970Z,9.60
2022-09-18T22:51:35.960Z,9.70
2022-09-18T22:54:07.772Z,9.70
2022-09-18T22:56:45.247Z,9.60
2022-09-18T22:59:17.499Z,9.60
2022-09-18T23:01:49.141Z,9.50
2022-09-18T23:04:18.864Z,9.60
2022-09-18T23:06:47.733Z,9.60
2022-09-18T23:09:16.405Z,9.50
2022-09-18T23:11:45.031Z,9.60
2022-09-18T23:14:18.409Z,9.50
2022-09-18T23:16:45.561Z,9.60
2022-09-18T23:19:17.913Z,9.60
2022-09-18T23:21:45.507Z,9.60
2022-09-18T23:24:12.754Z,9.60
2022-09-18T23:26:41.705Z,9.60
2022-09-18T23:29:10.995Z,9.60
2022-09-18T23:31:40.031Z,9.70
2022-09-18T23:34:11.315Z,9.70
2022-09-18T23:36:41.113Z,9.60
2022-09-18T23:39:12.816Z,9.60
2022-09-18T23:41:39.886Z,9.70
2022-09-18T23:44:08.838Z,9.70
2022-09-18T23:46:36.050Z,9.60
2022-09-18T23:49:03.167Z,9.60
2022-09-18T23:51:32.491Z,9.60
2022-09-18T23:54:01.730Z,9.60
2022-09-18T23:56:31.162Z,9.60
2022-09-18T23:59:03.585Z,9.70
